sensor_id;sensor_type;location;lat;lon;timestamp;pressure;altitude;pressure_sealevel;temperature;humidity
55171;BME280;41060;47.510;8.680;2023-02-23T00:01:13;96779.69;;;13.81;50.30
55171;BME280;41060;47.510;8.680;2023-02-23T00:03:41;96773.91;;;13.68;50.61
55171;BME280;41060;47.510;8.680;2023-02-23T00:06:09;96744.75;;;13.49;50.73
55171;BME280;41060;47.510;8.680;2023-02-23T00:08:37;96713.25;;;13.26;50.45
55171;BME280;41060;47.510;8.680;2023-02-23T00:11:04;96780.06;;;13.68;50.82
55171;BME280;41060;47.510;8.680;2023-02-23T00:13:32;96708.81;;;13.17;51.07
55171;BME280;41060;47.510;8.680;2023-02-23T00:16:05;96773.50;;;13.63;50.41
55171;BME280;41060;47.510;8.680;2023-02-23T00:18:33;96722.72;;;13.29;49.97
55171;BME280;41060;47.510;8.680;2023-02-23T00:21:13;96772.63;;;13.90;49.46
55171;BME280;41060;47.510;8.680;2023-02-23T00:23:46;96750.41;;;13.81;49.40
55171;BME280;41060;47.510;8.680;2023-02-23T00:26:13;96774.69;;;13.96;49.62
55171;BME280;41060;47.510;8.680;2023-02-23T00:28:41;96759.47;;;13.88;49.53
55171;BME280;41060;47.510;8.680;2023-02-23T00:31:10;96755.69;;;13.91;49.39
55171;BME280;41060;47.510;8.680;2023-02-23T00:33:37;96646.09;;;13.24;49.29
55171;BME280;41060;47.510;8.680;2023-02-23T00:36:07;96724.25;;;13.59;49.90
55171;BME280;41060;47.510;8.680;2023-02-23T00:38:34;96772.72;;;13.80;50.26
55171;BME280;41060;47.510;8.680;2023-02-23T00:41:05;96724.41;;;13.57;49.76
55171;BME280;41060;47.510;8.680;2023-02-23T00:43:36;96707.09;;;13.26;50.35
55171;BME280;41060;47.510;8.680;2023-02-23T00:46:04;96775.28;;;13.72;50.12
55171;BME280;41060;47.510;8.680;2023-02-23T00:48:33;96678.97;;;13.06;50.03
55171;BME280;41060;47.510;8.680;2023-02-23T00:51:01;96762.88;;;13.80;50.07
55171;BME280;41060;47.510;8.680;2023-02-23T00:53:31;96656.72;;;13.24;49.68
55171;BME280;41060;47.510;8.680;2023-02-23T00:55:58;96603.16;;;12.92;49.85
55171;BME280;41060;47.510;8.680;2023-02-23T00:58:25;96754.31;;;13.87;49.84
55171;BME280;41060;47.510;8.680;2023-02-23T01:00:56;96759.59;;;13.69;50.16
55171;BME280;41060;47.510;8.680;2023-02-23T01:03:27;96672.22;;;13.29;50.11
55171;BME280;41060;47.510;8.680;2023-02-23T01:05:58;96655.38;;;13.20;49.58
55171;BME280;41060;47.510;8.680;2023-02-23T01:08:25;96749.00;;;13.87;49.90
55171;BME280;41060;47.510;8.680;2023-02-23T01:10:52;96757.50;;;13.90;49.50
55171;BME280;41060;47.510;8.680;2023-02-23T01:13:19;96746.78;;;13.82;49.80
55171;BME280;41060;47.510;8.680;2023-02-23T01:15:47;96578.53;;;12.72;49.54
55171;BME280;41060;47.510;8.680;2023-02-23T01:18:15;96710.72;;;13.52;49.85
55171;BME280;41060;47.510;8.680;2023-02-23T01:20:43;96720.16;;;13.64;49.93
55171;BME280;41060;47.510;8.680;2023-02-23T01:23:12;96738.09;;;13.62;49.81
55171;BME280;41060;47.510;8.680;2023-02-23T01:25:40;96750.19;;;13.74;50.02
55171;BME280;41060;47.510;8.680;2023-02-23T01:28:08;96759.66;;;13.59;50.02
55171;BME280;41060;47.510;8.680;2023-02-23T01:30:35;96641.63;;;12.97;50.04
55171;BME280;41060;47.510;8.680;2023-02-23T01:33:01;96608.22;;;12.68;50.23
55171;BME280;41060;47.510;8.680;2023-02-23T01:35:28;96687.31;;;13.11;50.28
55171;BME280;41060;47.510;8.680;2023-02-23T01:37:55;96677.91;;;13.16;50.15
55171;BME280;41060;47.510;8.680;2023-02-23T01:40:24;96709.63;;;13.45;49.81
55171;BME280;41060;47.510;8.680;2023-02-23T01:42:55;96733.47;;;13.64;49.77
55171;BME280;41060;47.510;8.680;2023-02-23T01:45:31;96620.50;;;12.96;49.25
55171;BME280;41060;47.510;8.680;2023-02-23T01:48:02;96750.38;;;13.46;50.28
55171;BME280;41060;47.510;8.680;2023-02-23T01:50:37;96742.28;;;13.37;50.27
55171;BME280;41060;47.510;8.680;2023-02-23T01:53:06;96525.16;;;12.11;49.88
55171;BME280;41060;47.510;8.680;2023-02-23T01:55:34;96580.94;;;12.38;50.48
55171;BME280;41060;47.510;8.680;2023-02-23T01:58:07;96602.09;;;12.57;49.97
55171;BME280;41060;47.510;8.680;2023-02-23T02:00:42;96676.94;;;12.80;50.52
55171;BME280;41060;47.510;8.680;2023-02-23T02:03:12;96568.34;;;12.40;50.03
55171;BME280;41060;47.510;8.680;2023-02-23T02:05:40;96738.47;;;13.50;50.62
55171;BME280;41060;47.510;8.680;2023-02-23T02:08:08;96742.84;;;13.41;50.53
55171;BME280;41060;47.510;8.680;2023-02-23T02:10:37;96533.50;;;11.79;51.57
55171;BME280;41060;47.510;8.680;2023-02-23T02:13:15;96738.53;;;13.03;51.54
55171;BME280;41060;47.510;8.680;2023-02-23T02:16:06;96676.47;;;12.57;52.18
55171;BME280;41060;47.510;8.680;2023-02-23T02:18:47;96568.91;;;12.07;51.88
55171;BME280;41060;47.510;8.680;2023-02-23T02:21:33;96736.41;;;13.07;51.50
55171;BME280;41060;47.510;8.680;2023-02-23T02:27:22;96690.81;;;12.74;51.82
55171;BME280;41060;47.510;8.680;2023-02-23T02:30:24;96663.66;;;12.43;52.08
55171;BME280;41060;47.510;8.680;2023-02-23T02:33:17;96727.81;;;12.85;52.42
55171;BME280;41060;47.510;8.680;2023-02-23T02:36:04;96731.53;;;13.02;51.84
55171;BME280;41060;47.510;8.680;2023-02-23T02:38:40;96727.28;;;12.82;52.37
55171;BME280;41060;47.510;8.680;2023-02-23T02:41:19;96725.81;;;12.60;52.98
55171;BME280;41060;47.510;8.680;2023-02-23T02:43:57;96631.06;;;11.85;53.58
55171;BME280;41060;47.510;8.680;2023-02-23T02:46:29;96725.25;;;12.47;53.44
55171;BME280;41060;47.510;8.680;2023-02-23T02:49:03;96724.91;;;12.69;52.77
55171;BME280;41060;47.510;8.680;2023-02-23T02:51:38;96722.38;;;12.77;52.32
55171;BME280;41060;47.510;8.680;2023-02-23T02:54:11;96722.47;;;12.85;51.94
55171;BME280;41060;47.510;8.680;2023-02-23T02:56:42;96723.78;;;12.72;52.66
55171;BME280;41060;47.510;8.680;2023-02-23T02:59:12;96702.19;;;12.57;52.75
55171;BME280;41060;47.510;8.680;2023-02-23T03:01:57;96718.47;;;12.72;52.61
55171;BME280;41060;47.510;8.680;2023-02-23T03:04:42;96614.03;;;11.97;52.69
55171;BME280;41060;47.510;8.680;2023-02-23T03:07:30;96715.72;;;12.63;52.59
55171;BME280;41060;47.510;8.680;2023-02-23T03:10:25;96720.69;;;12.20;54.02
55171;BME280;41060;47.510;8.680;2023-02-23T03:13:18;96665.69;;;11.55;55.16
55171;BME280;41060;47.510;8.680;2023-02-23T03:16:16;96633.81;;;11.16;55.50
55171;BME280;41060;47.510;8.680;2023-02-23T03:19:12;96659.53;;;11.54;54.77
55171;BME280;41060;47.510;8.680;2023-02-23T03:22:05;96670.56;;;11.88;54.15
55171;BME280;41060;47.510;8.680;2023-02-23T03:24:54;96719.25;;;12.45;53.25
55171;BME280;41060;47.510;8.680;2023-02-23T03:27:45;96716.00;;;12.60;52.90
55171;BME280;41060;47.510;8.680;2023-02-23T03:30:44;96713.38;;;12.41;53.44
55171;BME280;41060;47.510;8.680;2023-02-23T03:33:35;96571.91;;;11.36;53.84
55171;BME280;41060;47.510;8.680;2023-02-23T03:36:23;96716.47;;;12.46;52.84
55171;BME280;41060;47.510;8.680;2023-02-23T03:39:14;96588.47;;;11.77;52.84
55171;BME280;41060;47.510;8.680;2023-02-23T03:42:03;96722.56;;;12.66;52.74
55171;BME280;41060;47.510;8.680;2023-02-23T03:44:54;96663.19;;;12.48;52.26
55171;BME280;41060;47.510;8.680;2023-02-23T03:47:42;96624.81;;;12.33;51.47
55171;BME280;41060;47.510;8.680;2023-02-23T03:50:32;96653.94;;;12.61;51.54
55171;BME280;41060;47.510;8.680;2023-02-23T03:53:23;96719.88;;;12.76;52.14
55171;BME280;41060;47.510;8.680;2023-02-23T03:56:10;96711.13;;;12.93;51.56
55171;BME280;41060;47.510;8.680;2023-02-23T03:58:58;96556.44;;;12.17;51.06
55171;BME280;41060;47.510;8.680;2023-02-23T04:01:46;96704.81;;;13.13;50.85
55171;BME280;41060;47.510;8.680;2023-02-23T04:04:32;96439.22;;;11.47;51.08
55171;BME280;41060;47.510;8.680;2023-02-23T04:07:20;96689.09;;;12.83;51.16
55171;BME280;41060;47.510;8.680;2023-02-23T04:10:08;96717.28;;;13.03;51.38
55171;BME280;41060;47.510;8.680;2023-02-23T04:12:56;96723.81;;;13.09;51.09
55171;BME280;41060;47.510;8.680;2023-02-23T04:15:46;96623.53;;;12.46;51.17
55171;BME280;41060;47.510;8.680;2023-02-23T04:18:16;96722.47;;;13.05;50.96
55171;BME280;41060;47.510;8.680;2023-02-23T04:20:43;96722.31;;;13.06;50.80
55171;BME280;41060;47.510;8.680;2023-02-23T04:23:10;96700.28;;;12.77;51.35
55171;BME280;41060;47.510;8.680;2023-02-23T04:25:37;96723.69;;;13.00;52.80
55171;BME280;41060;47.510;8.680;2023-02-23T04:28:04;96726.06;;;12.57;52.61
55171;BME280;41060;47.510;8.680;2023-02-23T04:30:31;96717.59;;;12.90;55.29
55171;BME280;41060;47.510;8.680;2023-02-23T04:32:57;96728.00;;;12.64;52.19
55171;BME280;41060;47.510;8.680;2023-02-23T04:35:27;96671.41;;;12.08;52.53
55171;BME280;41060;47.510;8.680;2023-02-23T04:37:56;96726.22;;;12.55;52.18
55171;BME280;41060;47.510;8.680;2023-02-23T04:40:23;96649.22;;;12.09;51.73
55171;BME280;41060;47.510;8.680;2023-02-23T04:42:50;96542.47;;;11.30;52.08
55171;BME280;41060;47.510;8.680;2023-02-23T04:45:17;96726.78;;;12.59;51.99
55171;BME280;41060;47.510;8.680;2023-02-23T04:47:44;96602.84;;;11.74;51.74
55171;BME280;41060;47.510;8.680;2023-02-23T04:50:12;96621.72;;;11.71;52.17
55171;BME280;41060;47.510;8.680;2023-02-23T04:52:41;96724.31;;;12.19;52.25
55171;BME280;41060;47.510;8.680;2023-02-23T04:55:11;96543.59;;;11.18;52.30
55171;BME280;41060;47.510;8.680;2023-02-23T04:57:41;96613.19;;;11.58;51.92
55171;BME280;41060;47.510;8.680;2023-02-23T05:00:08;96707.72;;;12.17;52.16
55171;BME280;41060;47.510;8.680;2023-02-23T05:02:35;96725.81;;;12.41;51.73
55171;BME280;41060;47.510;8.680;2023-02-23T05:05:03;96729.63;;;12.38;51.83
55171;BME280;41060;47.510;8.680;2023-02-23T05:07:29;96571.19;;;11.44;52.06
55171;BME280;41060;47.510;8.680;2023-02-23T05:09:57;96736.31;;;12.52;51.83
55171;BME280;41060;47.510;8.680;2023-02-23T05:12:25;96552.25;;;11.48;51.73
55171;BME280;41060;47.510;8.680;2023-02-23T05:14:51;96678.66;;;12.15;51.86
55171;BME280;41060;47.510;8.680;2023-02-23T05:17:20;96736.34;;;12.23;52.87
55171;BME280;41060;47.510;8.680;2023-02-23T05:19:47;96732.28;;;12.38;52.81
55171;BME280;41060;47.510;8.680;2023-02-23T05:22:16;96729.19;;;12.33;53.38
55171;BME280;41060;47.510;8.680;2023-02-23T05:24:42;96726.97;;;12.38;52.97
55171;BME280;41060;47.510;8.680;2023-02-23T05:27:12;96723.06;;;12.23;53.31
55171;BME280;41060;47.510;8.680;2023-02-23T05:29:39;96694.31;;;11.90;53.87
55171;BME280;41060;47.510;8.680;2023-02-23T05:32:06;96501.31;;;10.78;54.00
55171;BME280;41060;47.510;8.680;2023-02-23T05:34:33;96724.22;;;12.01;54.66
55171;BME280;41060;47.510;8.680;2023-02-23T05:37:01;96475.66;;;10.59;53.74
55171;BME280;41060;47.510;8.680;2023-02-23T05:39:27;96725.16;;;12.29;52.78
55171;BME280;41060;47.510;8.680;2023-02-23T05:41:55;96751.00;;;12.37;52.83
55171;BME280;41060;47.510;8.680;2023-02-23T05:44:23;96707.13;;;12.33;52.46
55171;BME280;41060;47.510;8.680;2023-02-23T05:46:49;96735.16;;;12.54;52.16
55171;BME280;41060;47.510;8.680;2023-02-23T05:49:16;96734.03;;;12.67;52.17
55171;BME280;41060;47.510;8.680;2023-02-23T05:51:43;96702.91;;;12.49;52.11
55171;BME280;41060;47.510;8.680;2023-02-23T05:54:09;96725.19;;;12.76;51.57
55171;BME280;41060;47.510;8.680;2023-02-23T05:56:38;96728.00;;;12.74;52.03
55171;BME280;41060;47.510;8.680;2023-02-23T05:59:07;96721.84;;;12.74;52.12
55171;BME280;41060;47.510;8.680;2023-02-23T06:01:35;96726.63;;;12.60;51.67
55171;BME280;41060;47.510;8.680;2023-02-23T06:04:04;96732.22;;;12.67;51.52
55171;BME280;41060;47.510;8.680;2023-02-23T06:06:30;96726.19;;;12.75;51.63
55171;BME280;41060;47.510;8.680;2023-02-23T06:08:57;96726.03;;;12.76;51.60
55171;BME280;41060;47.510;8.680;2023-02-23T06:11:24;96727.81;;;12.85;51.54
55171;BME280;41060;47.510;8.680;2023-02-23T06:13:51;96681.50;;;12.60;51.19
55171;BME280;41060;47.510;8.680;2023-02-23T06:16:17;96624.56;;;12.26;51.45
55171;BME280;41060;47.510;8.680;2023-02-23T06:18:47;96647.84;;;12.42;51.31
55171;BME280;41060;47.510;8.680;2023-02-23T06:21:13;96729.47;;;12.86;50.86
55171;BME280;41060;47.510;8.680;2023-02-23T06:23:40;96531.28;;;11.55;51.10
55171;BME280;41060;47.510;8.680;2023-02-23T06:26:07;96721.38;;;12.88;50.97
55171;BME280;41060;47.510;8.680;2023-02-23T06:28:33;96716.13;;;12.69;51.13
55171;BME280;41060;47.510;8.680;2023-02-23T06:31:00;96592.66;;;11.99;50.96
55171;BME280;41060;47.510;8.680;2023-02-23T06:33:28;96735.72;;;12.68;51.75
55171;BME280;41060;47.510;8.680;2023-02-23T06:35:57;96723.34;;;12.39;52.06
55171;BME280;41060;47.510;8.680;2023-02-23T06:38:24;96744.41;;;12.41;52.14
55171;BME280;41060;47.510;8.680;2023-02-23T06:40:52;96737.13;;;12.52;51.95
55171;BME280;41060;47.510;8.680;2023-02-23T06:43:20;96609.69;;;11.67;52.09
55171;BME280;41060;47.510;8.680;2023-02-23T06:45:47;96563.13;;;11.26;52.48
55171;BME280;41060;47.510;8.680;2023-02-23T06:48:14;96746.13;;;12.22;52.82
55171;BME280;41060;47.510;8.680;2023-02-23T06:50:41;96750.47;;;12.14;53.47
55171;BME280;41060;47.510;8.680;2023-02-23T06:53:09;96746.00;;;12.14;53.27
55171;BME280;41060;47.510;8.680;2023-02-23T06:55:37;96618.25;;;11.42;52.87
55171;BME280;41060;47.510;8.680;2023-02-23T06:58:06;96707.59;;;11.90;53.45
55171;BME280;41060;47.510;8.680;2023-02-23T07:00:33;96655.34;;;11.52;53.89
55171;BME280;41060;47.510;8.680;2023-02-23T07:03:03;96678.25;;;11.62;53.80
55171;BME280;41060;47.510;8.680;2023-02-23T07:05:31;96758.69;;;12.20;53.88
55171;BME280;41060;47.510;8.680;2023-02-23T07:08:00;96567.56;;;10.97;54.17
55171;BME280;41060;47.510;8.680;2023-02-23T07:10:33;96598.09;;;11.01;54.17
55171;BME280;41060;47.510;8.680;2023-02-23T07:13:00;96765.69;;;12.02;54.53
55171;BME280;41060;47.510;8.680;2023-02-23T07:15:27;96590.13;;;10.82;55.08
55171;BME280;41060;47.510;8.680;2023-02-23T07:17:54;96736.03;;;11.68;54.77
55171;BME280;41060;47.510;8.680;2023-02-23T07:20:21;96722.59;;;11.60;54.51
55171;BME280;41060;47.510;8.680;2023-02-23T07:22:49;96511.84;;;10.39;54.70
55171;BME280;41060;47.510;8.680;2023-02-23T07:25:16;96774.47;;;11.93;54.93
55171;BME280;41060;47.510;8.680;2023-02-23T07:27:44;96767.78;;;11.99;54.72
55171;BME280;41060;47.510;8.680;2023-02-23T07:30:12;96775.31;;;11.94;55.14
55171;BME280;41060;47.510;8.680;2023-02-23T07:32:39;96692.81;;;11.18;55.69
55171;BME280;41060;47.510;8.680;2023-02-23T07:35:06;96701.16;;;11.14;55.82
55171;BME280;41060;47.510;8.680;2023-02-23T07:37:36;96778.66;;;11.96;54.91
55171;BME280;41060;47.510;8.680;2023-02-23T07:40:03;96779.66;;;12.14;54.63
55171;BME280;41060;47.510;8.680;2023-02-23T07:42:30;96783.00;;;12.25;54.34
55171;BME280;41060;47.510;8.680;2023-02-23T07:44:59;96811.22;;;12.36;53.81
55171;BME280;41060;47.510;8.680;2023-02-23T07:47:25;96601.47;;;11.22;54.02
55171;BME280;41060;47.510;8.680;2023-02-23T07:49:56;96715.28;;;12.02;53.91
55171;BME280;41060;47.510;8.680;2023-02-23T07:52:23;96794.28;;;12.47;53.92
55171;BME280;41060;47.510;8.680;2023-02-23T07:54:49;96789.09;;;12.55;53.77
55171;BME280;41060;47.510;8.680;2023-02-23T07:57:16;96767.03;;;12.54;53.32
55171;BME280;41060;47.510;8.680;2023-02-23T07:59:43;96786.59;;;12.63;53.54
55171;BME280;41060;47.510;8.680;2023-02-23T08:02:12;96787.59;;;12.52;54.01
55171;BME280;41060;47.510;8.680;2023-02-23T08:04:39;96785.91;;;12.61;53.96
55171;BME280;41060;47.510;8.680;2023-02-23T08:07:08;96717.09;;;12.02;54.39
55171;BME280;41060;47.510;8.680;2023-02-23T08:09:35;96774.19;;;12.25;55.01
55171;BME280;41060;47.510;8.680;2023-02-23T08:12:05;96772.94;;;12.19;55.36
55171;BME280;41060;47.510;8.680;2023-02-23T08:14:35;96782.59;;;12.20;55.69
55171;BME280;41060;47.510;8.680;2023-02-23T08:17:01;96728.63;;;11.81;54.97
55171;BME280;41060;47.510;8.680;2023-02-23T08:19:29;96675.31;;;11.56;55.25
55171;BME280;41060;47.510;8.680;2023-02-23T08:21:57;96605.22;;;11.10;55.45
55171;BME280;41060;47.510;8.680;2023-02-23T08:24:23;96707.13;;;11.75;55.49
55171;BME280;41060;47.510;8.680;2023-02-23T08:26:50;96796.97;;;12.37;55.13
55171;BME280;41060;47.510;8.680;2023-02-23T08:29:21;96795.69;;;12.41;55.12
55171;BME280;41060;47.510;8.680;2023-02-23T08:31:47;96745.84;;;12.16;55.16
55171;BME280;41060;47.510;8.680;2023-02-23T08:34:16;96797.38;;;12.42;55.48
55171;BME280;41060;47.510;8.680;2023-02-23T08:36:44;96730.63;;;11.99;55.59
55171;BME280;41060;47.510;8.680;2023-02-23T08:39:11;96622.53;;;11.24;56.05
55171;BME280;41060;47.510;8.680;2023-02-23T08:41:37;96798.47;;;12.40;55.66
55171;BME280;41060;47.510;8.680;2023-02-23T08:44:04;96796.13;;;12.46;55.96
55171;BME280;41060;47.510;8.680;2023-02-23T08:46:31;96799.31;;;12.59;54.91
55171;BME280;41060;47.510;8.680;2023-02-23T08:48:58;96729.22;;;12.14;54.31
55171;BME280;41060;47.510;8.680;2023-02-23T08:51:25;96798.63;;;12.48;55.16
55171;BME280;41060;47.510;8.680;2023-02-23T08:53:53;96797.66;;;12.58;54.88
55171;BME280;41060;47.510;8.680;2023-02-23T08:56:21;96706.84;;;12.26;53.91
55171;BME280;41060;47.510;8.680;2023-02-23T08:58:50;96793.63;;;13.01;54.00
55171;BME280;41060;47.510;8.680;2023-02-23T09:01:19;96650.44;;;12.24;53.75
55171;BME280;41060;47.510;8.680;2023-02-23T09:03:47;96793.69;;;13.28;53.14
55171;BME280;41060;47.510;8.680;2023-02-23T09:06:17;96791.84;;;13.38;53.10
55171;BME280;41060;47.510;8.680;2023-02-23T09:08:43;96794.84;;;13.53;52.43
55171;BME280;41060;47.510;8.680;2023-02-23T09:11:11;96732.28;;;13.22;52.30
55171;BME280;41060;47.510;8.680;2023-02-23T09:13:38;96795.78;;;13.62;51.80
55171;BME280;41060;47.510;8.680;2023-02-23T09:16:06;96798.47;;;13.52;52.12
55171;BME280;41060;47.510;8.680;2023-02-23T09:18:33;96774.56;;;13.15;52.20
55171;BME280;41060;47.510;8.680;2023-02-23T09:21:02;96800.16;;;13.53;51.52
55171;BME280;41060;47.510;8.680;2023-02-23T09:23:31;96774.16;;;13.47;51.00
55171;BME280;41060;47.510;8.680;2023-02-23T09:26:01;96777.44;;;13.59;50.59
55171;BME280;41060;47.510;8.680;2023-02-23T09:28:30;96791.13;;;13.91;50.14
55171;BME280;41060;47.510;8.680;2023-02-23T09:31:04;96802.75;;;13.90;49.82
55171;BME280;41060;47.510;8.680;2023-02-23T09:33:31;96799.63;;;13.77;50.30
55171;BME280;41060;47.510;8.680;2023-02-23T09:35:58;96669.59;;;12.92;50.49
55171;BME280;41060;47.510;8.680;2023-02-23T09:38:25;96800.22;;;13.89;50.09
55171;BME280;41060;47.510;8.680;2023-02-23T09:40:53;96780.47;;;13.91;49.93
55171;BME280;41060;47.510;8.680;2023-02-23T09:43:22;96795.34;;;14.11;49.67
55171;BME280;41060;47.510;8.680;2023-02-23T09:46:07;96793.91;;;14.17;49.48
55171;BME280;41060;47.510;8.680;2023-02-23T09:48:40;96634.94;;;13.21;49.66
55171;BME280;41060;47.510;8.680;2023-02-23T09:51:14;96795.69;;;13.99;50.10
55171;BME280;41060;47.510;8.680;2023-02-23T09:53:46;96795.41;;;14.02;50.31
55171;BME280;41060;47.510;8.680;2023-02-23T09:56:17;96708.91;;;13.25;50.90
55171;BME280;41060;47.510;8.680;2023-02-23T09:58:46;96797.00;;;14.12;50.64
55171;BME280;41060;47.510;8.680;2023-02-23T10:01:36;96804.09;;;14.39;49.71
55171;BME280;41060;47.510;8.680;2023-02-23T10:04:11;96758.22;;;14.28;49.77
55171;BME280;41060;47.510;8.680;2023-02-23T10:06:45;96645.75;;;13.72;49.66
55171;BME280;41060;47.510;8.680;2023-02-23T10:09:19;96749.53;;;14.43;49.55
55171;BME280;41060;47.510;8.680;2023-02-23T10:11:52;96714.69;;;14.37;49.08
55171;BME280;41060;47.510;8.680;2023-02-23T10:14:48;96706.06;;;14.43;48.83
55171;BME280;41060;47.510;8.680;2023-02-23T10:17:28;96609.00;;;13.94;48.37
55171;BME280;41060;47.510;8.680;2023-02-23T10:20:05;96660.38;;;14.30;47.29
55171;BME280;41060;47.510;8.680;2023-02-23T10:22:40;96541.88;;;13.56;46.44
55171;BME280;41060;47.510;8.680;2023-02-23T10:25:11;96727.44;;;14.77;47.72
55171;BME280;41060;47.510;8.680;2023-02-23T10:27:40;96777.72;;;15.23;47.76
55171;BME280;41060;47.510;8.680;2023-02-23T10:30:16;96760.75;;;15.32;47.29
55171;BME280;41060;47.510;8.680;2023-02-23T10:32:49;96707.22;;;15.26;46.88
55171;BME280;41060;47.510;8.680;2023-02-23T10:35:20;96567.75;;;14.49;46.55
55171;BME280;41060;47.510;8.680;2023-02-23T10:37:48;96636.59;;;14.96;45.20
55171;BME280;41060;47.510;8.680;2023-02-23T10:40:20;96773.53;;;16.13;45.29
55171;BME280;41060;47.510;8.680;2023-02-23T10:42:48;96638.94;;;15.49;44.83
55171;BME280;41060;47.510;8.680;2023-02-23T10:45:17;96770.72;;;16.23;44.42
55171;BME280;41060;47.510;8.680;2023-02-23T10:47:51;96738.16;;;15.53;45.32
55171;BME280;41060;47.510;8.680;2023-02-23T10:50:20;96600.22;;;14.87;45.54
55171;BME280;41060;47.510;8.680;2023-02-23T10:52:54;96730.41;;;15.84;45.01
55171;BME280;41060;47.510;8.680;2023-02-23T10:55:27;96753.94;;;15.88;45.05
55171;BME280;41060;47.510;8.680;2023-02-23T10:58:02;96753.47;;;15.93;45.07
55171;BME280;41060;47.510;8.680;2023-02-23T11:00:33;96759.19;;;16.14;44.53
55171;BME280;41060;47.510;8.680;2023-02-23T11:03:16;96757.88;;;16.34;44.11
55171;BME280;41060;47.510;8.680;2023-02-23T11:05:46;96747.19;;;16.42;43.30
55171;BME280;41060;47.510;8.680;2023-02-23T11:08:33;96701.44;;;16.37;43.11
55171;BME280;41060;47.510;8.680;2023-02-23T11:11:16;96733.50;;;16.45;43.27
55171;BME280;41060;47.510;8.680;2023-02-23T11:13:46;96739.16;;;16.75;42.08
55171;BME280;41060;47.510;8.680;2023-02-23T11:16:15;96556.69;;;15.28;43.13
55171;BME280;41060;47.510;8.680;2023-02-23T11:18:51;96738.50;;;16.32;43.09
55171;BME280;41060;47.510;8.680;2023-02-23T11:21:22;96591.94;;;15.72;43.01
55171;BME280;41060;47.510;8.680;2023-02-23T11:23:51;96728.06;;;16.94;42.10
55171;BME280;41060;47.510;8.680;2023-02-23T11:26:27;96725.56;;;17.01;42.02
55171;BME280;41060;47.510;8.680;2023-02-23T11:28:57;96726.91;;;17.13;41.64
55171;BME280;41060;47.510;8.680;2023-02-23T11:31:29;96721.75;;;17.50;41.08
55171;BME280;41060;47.510;8.680;2023-02-23T11:34:00;96717.44;;;17.72;41.05
55171;BME280;41060;47.510;8.680;2023-02-23T11:36:29;96665.28;;;17.60;39.98
55171;BME280;41060;47.510;8.680;2023-02-23T11:39:06;96712.06;;;18.03;39.48
55171;BME280;41060;47.510;8.680;2023-02-23T11:41:33;96705.81;;;17.57;39.64
55171;BME280;41060;47.510;8.680;2023-02-23T11:44:02;96713.41;;;16.98;40.28
55171;BME280;41060;47.510;8.680;2023-02-23T11:46:31;96714.78;;;16.45;40.89
55171;BME280;41060;47.510;8.680;2023-02-23T11:49:02;96704.78;;;16.15;41.24
55171;BME280;41060;47.510;8.680;2023-02-23T11:51:32;96690.75;;;16.13;41.72
55171;BME280;41060;47.510;8.680;2023-02-23T11:54:02;96678.88;;;16.48;40.83
55171;BME280;41060;47.510;8.680;2023-02-23T11:56:33;96665.63;;;16.71;40.34
55171;BME280;41060;47.510;8.680;2023-02-23T11:59:03;96687.09;;;17.10;40.32
55171;BME280;41060;47.510;8.680;2023-02-23T12:01:37;96678.16;;;16.70;40.62
55171;BME280;41060;47.510;8.680;2023-02-23T12:04:22;96691.59;;;17.17;40.13
55171;BME280;41060;47.510;8.680;2023-02-23T12:06:51;96691.19;;;17.28;40.58
55171;BME280;41060;47.510;8.680;2023-02-23T12:09:21;96684.25;;;17.19;40.96
55171;BME280;41060;47.510;8.680;2023-02-23T12:11:53;96687.91;;;17.18;41.00
55171;BME280;41060;47.510;8.680;2023-02-23T12:14:29;96686.44;;;17.08;41.22
55171;BME280;41060;47.510;8.680;2023-02-23T12:17:01;96682.13;;;16.91;41.45
55171;BME280;41060;47.510;8.680;2023-02-23T12:19:34;96681.66;;;16.71;41.86
55171;BME280;41060;47.510;8.680;2023-02-23T12:22:05;96681.06;;;16.44;42.31
55171;BME280;41060;47.510;8.680;2023-02-23T12:24:41;96673.72;;;16.46;42.30
55171;BME280;41060;47.510;8.680;2023-02-23T12:27:11;96678.38;;;16.44;42.86
55171;BME280;41060;47.510;8.680;2023-02-23T12:29:51;96672.06;;;16.37;42.61
55171;BME280;41060;47.510;8.680;2023-02-23T12:32:23;96655.88;;;16.31;42.57
55171;BME280;41060;47.510;8.680;2023-02-23T12:34:57;96668.38;;;16.46;42.10
55171;BME280;41060;47.510;8.680;2023-02-23T12:37:33;96660.16;;;16.48;42.01
55171;BME280;41060;47.510;8.680;2023-02-23T12:40:13;96661.84;;;16.41;42.66
55171;BME280;41060;47.510;8.680;2023-02-23T12:42:45;96665.84;;;16.61;42.17
55171;BME280;41060;47.510;8.680;2023-02-23T12:45:20;96667.25;;;17.04;41.17
55171;BME280;41060;47.510;8.680;2023-02-23T12:47:48;96658.53;;;17.41;40.93
55171;BME280;41060;47.510;8.680;2023-02-23T12:50:27;96657.91;;;17.62;40.08
55171;BME280;41060;47.510;8.680;2023-02-23T12:52:57;96658.28;;;17.82;38.46
55171;BME280;41060;47.510;8.680;2023-02-23T12:55:34;96658.25;;;17.90;39.00
55171;BME280;41060;47.510;8.680;2023-02-23T12:58:14;96659.47;;;17.56;39.17
55171;BME280;41060;47.510;8.680;2023-02-23T13:00:52;96655.13;;;17.86;38.22
55171;BME280;41060;47.510;8.680;2023-02-23T13:03:43;96655.50;;;18.21;37.99
55171;BME280;41060;47.510;8.680;2023-02-23T13:06:19;96655.22;;;18.16;38.00
55171;BME280;41060;47.510;8.680;2023-02-23T13:08:57;96622.34;;;18.22;37.69
55171;BME280;41060;47.510;8.680;2023-02-23T13:14:25;96639.44;;;18.88;35.82
55171;BME280;41060;47.510;8.680;2023-02-23T13:16:59;96643.97;;;19.02;36.33
55171;BME280;41060;47.510;8.680;2023-02-23T13:19:34;96633.19;;;19.31;35.64
55171;BME280;41060;47.510;8.680;2023-02-23T13:22:21;96623.53;;;19.51;34.08
55171;BME280;41060;47.510;8.680;2023-02-23T13:24:53;96640.19;;;19.62;33.63
55171;BME280;41060;47.510;8.680;2023-02-23T13:27:27;96612.00;;;19.72;33.03
55171;BME280;41060;47.510;8.680;2023-02-23T13:29:59;96642.28;;;20.02;32.71
55171;BME280;41060;47.510;8.680;2023-02-23T13:32:28;96607.28;;;19.24;34.13